createdAt,value
2023-03-23T00:00:48.106Z,1001.18
2023-03-23T00:01:48.454Z,1001.19
2023-03-23T00:03:48.197Z,1001.13
2023-03-23T00:04:48.225Z,1001.15
2023-03-23T00:05:48.256Z,1001.11
2023-03-23T00:06:48.358Z,1001.08
2023-03-23T00:07:48.616Z,1001.03
2023-03-23T00:08:48.346Z,1001.04
2023-03-23T00:09:48.380Z,1001.02
2023-03-23T00:10:48.411Z,1001.10
2023-03-23T00:11:48.434Z,1001.03
2023-03-23T00:12:48.519Z,1001.05
2023-03-23T00:13:48.494Z,1001.06
2023-03-23T00:14:48.827Z,1001.04
2023-03-23T00:15:48.577Z,1001.07
2023-03-23T00:16:48.600Z,1001.00
2023-03-23T00:17:48.610Z,1001.05
2023-03-23T00:18:48.644Z,1001.04
2023-03-23T00:19:48.674Z,1001.04
2023-03-23T00:20:48.702Z,1001.06
2023-03-23T00:21:49.037Z,1001.01
2023-03-23T00:22:48.792Z,1000.96
2023-03-23T00:23:48.789Z,1000.92
2023-03-23T00:24:48.832Z,1000.98
2023-03-23T00:25:48.850Z,1000.97
2023-03-23T00:27:48.914Z,1000.97
2023-03-23T00:28:49.241Z,1000.95
2023-03-23T00:29:48.972Z,1000.90
2023-03-23T00:30:49.010Z,1000.96
2023-03-23T00:31:49.042Z,1000.96
2023-03-23T00:32:49.061Z,1000.96
2023-03-23T00:33:49.098Z,1000.87
2023-03-23T00:34:49.132Z,1000.90
2023-03-23T00:35:49.520Z,1000.89
2023-03-23T00:36:49.184Z,1000.95
2023-03-23T00:37:49.212Z,1000.98
2023-03-23T00:38:49.308Z,1000.95
2023-03-23T00:39:49.284Z,1001.04
2023-03-23T00:40:49.312Z,1001.04
2023-03-23T00:41:49.430Z,1001.04
2023-03-23T00:42:49.665Z,1001.08
2023-03-23T00:43:49.397Z,1000.95
2023-03-23T00:44:49.469Z,1000.98
2023-03-23T00:45:49.469Z,1000.93
2023-03-23T00:46:49.484Z,1000.92
2023-03-23T00:47:49.516Z,1000.87
2023-03-23T00:48:49.540Z,1000.88
2023-03-23T00:49:49.874Z,1000.82
2023-03-23T00:50:49.630Z,1000.77
2023-03-23T00:51:49.645Z,1000.76
2023-03-23T00:52:49.666Z,1000.74
2023-03-23T00:53:49.699Z,1000.81
2023-03-23T00:54:49.751Z,1000.81
2023-03-23T00:55:49.788Z,1000.80
2023-03-23T00:56:50.087Z,1000.78
2023-03-23T00:57:49.816Z,1000.82
2023-03-23T00:58:49.844Z,1000.81
2023-03-23T01:00:49.905Z,1000.83
2023-03-23T01:01:49.939Z,1000.83
2023-03-23T01:04:50.018Z,1000.71
2023-03-23T01:05:50.064Z,1000.75
2023-03-23T01:06:50.082Z,1000.77
2023-03-23T01:07:50.113Z,1000.75
2023-03-23T01:08:50.143Z,1000.73
2023-03-23T01:09:50.175Z,1000.77
2023-03-23T01:10:50.524Z,1000.75
2023-03-23T01:11:50.227Z,1000.76
2023-03-23T01:12:50.266Z,1000.74
2023-03-23T01:13:50.290Z,1000.74
2023-03-23T01:14:50.322Z,1000.78
2023-03-23T01:15:50.349Z,1000.76
2023-03-23T01:16:50.380Z,1000.78
2023-03-23T01:17:50.711Z,1000.78
2023-03-23T01:18:50.441Z,1000.79
2023-03-23T01:19:50.473Z,1000.76
2023-03-23T01:20:50.503Z,1000.75
2023-03-23T01:22:50.559Z,1000.73
2023-03-23T01:23:50.588Z,1000.67
2023-03-23T01:24:50.918Z,1000.68
2023-03-23T01:25:50.655Z,1000.70
2023-03-23T01:26:50.698Z,1000.71
2023-03-23T01:27:50.711Z,1000.69
2023-03-23T01:28:50.735Z,1000.72
2023-03-23T01:29:50.766Z,1000.71
2023-03-23T01:30:50.838Z,1000.73
2023-03-23T01:31:51.079Z,1000.76
2023-03-23T01:32:50.854Z,1000.71
2023-03-23T01:33:50.888Z,1000.77
2023-03-23T01:34:50.925Z,1000.75
2023-03-23T01:35:51.073Z,1000.77
2023-03-23T01:36:50.977Z,1000.73
2023-03-23T01:37:51.017Z,1000.78
2023-03-23T01:38:51.342Z,1000.77
2023-03-23T01:39:51.078Z,1000.71
2023-03-23T01:40:51.096Z,1000.70
2023-03-23T01:41:51.130Z,1000.67
2023-03-23T01:42:51.187Z,1000.60
2023-03-23T01:43:51.209Z,1000.52
2023-03-23T01:44:51.546Z,1000.54
2023-03-23T01:45:51.253Z,1000.54
2023-03-23T01:46:51.273Z,1000.59
2023-03-23T01:47:51.307Z,1000.56
2023-03-23T01:48:51.338Z,1000.60
2023-03-23T01:49:51.367Z,1000.57
2023-03-23T01:50:51.695Z,1000.55
2023-03-23T01:51:51.430Z,1000.55
2023-03-23T01:52:51.463Z,1000.47
2023-03-23T01:54:51.517Z,1000.49
2023-03-23T01:55:51.554Z,1000.48
2023-03-23T01:56:51.876Z,1000.51
2023-03-23T01:57:51.608Z,1000.58
2023-03-23T01:58:51.675Z,1000.61
2023-03-23T01:59:51.685Z,1000.57
2023-03-23T02:00:51.710Z,1000.50
2023-03-23T02:01:51.724Z,1000.41
2023-03-23T02:02:51.756Z,1000.47
2023-03-23T02:03:52.092Z,1000.56
2023-03-23T02:04:51.841Z,1000.56
2023-03-23T02:06:51.872Z,1000.49
2023-03-23T02:07:51.913Z,1000.38
2023-03-23T02:08:51.937Z,1000.20
2023-03-23T02:09:51.963Z,1000.20
2023-03-23T02:10:52.298Z,1000.24
2023-03-23T02:12:52.054Z,1000.28
2023-03-23T02:13:52.078Z,1000.25
2023-03-23T02:14:52.135Z,1000.25
2023-03-23T02:15:52.144Z,1000.20
2023-03-23T02:16:52.183Z,1000.15
2023-03-23T02:17:52.521Z,1000.12
2023-03-23T02:18:52.238Z,1000.17
2023-03-23T02:19:52.276Z,1000.08
2023-03-23T02:20:52.303Z,1000.07
2023-03-23T02:21:52.327Z,1000.05
2023-03-23T02:22:52.385Z,1000.07
2023-03-23T02:23:52.384Z,1000.03
2023-03-23T02:24:52.719Z,999.97
2023-03-23T02:25:52.444Z,999.90
2023-03-23T02:26:52.473Z,999.93
2023-03-23T02:27:52.529Z,999.89
2023-03-23T02:28:52.556Z,999.73
2023-03-23T02:29:52.567Z,999.69
2023-03-23T02:30:52.616Z,999.80
2023-03-23T02:31:52.625Z,999.82
2023-03-23T02:32:52.652Z,999.74
2023-03-23T02:33:52.681Z,999.74
2023-03-23T02:34:52.727Z,999.71
2023-03-23T02:35:52.801Z,999.72
2023-03-23T02:36:52.769Z,999.67
2023-03-23T02:37:53.046Z,999.74
2023-03-23T02:38:52.831Z,999.78
2023-03-23T02:39:52.862Z,999.79
2023-03-23T02:40:52.890Z,999.80
2023-03-23T02:41:52.995Z,999.86
2023-03-23T02:42:52.959Z,999.82
2023-03-23T02:43:52.987Z,999.81
2023-03-23T02:44:53.311Z,999.79
2023-03-23T02:46:53.095Z,999.82
2023-03-23T02:48:53.143Z,999.87
2023-03-23T02:49:53.161Z,999.91
2023-03-23T02:50:53.182Z,999.89
2023-03-23T02:51:53.463Z,999.96
2023-03-23T02:52:53.245Z,999.96
2023-03-23T02:53:53.274Z,999.96
2023-03-23T02:54:53.303Z,1000.02
2023-03-23T02:55:53.339Z,1000.04
2023-03-23T02:56:53.361Z,1000.07
2023-03-23T02:57:53.392Z,1000.09
2023-03-23T02:58:53.726Z,1000.02
2023-03-23T02:59:53.468Z,1000.04
2023-03-23T03:00:53.480Z,1000.01
2023-03-23T03:01:53.514Z,1000.05
2023-03-23T03:02:53.562Z,1000.05
2023-03-23T03:03:53.570Z,1000.03
2023-03-23T03:04:53.603Z,999.98
2023-03-23T03:05:53.925Z,1000.00
2023-03-23T03:06:53.663Z,999.96
2023-03-23T03:07:53.690Z,1000.01
2023-03-23T03:08:53.723Z,999.99
2023-03-23T03:09:53.749Z,1000.03
2023-03-23T03:10:53.779Z,999.98
2023-03-23T03:11:54.209Z,999.99
2023-03-23T03:12:53.837Z,999.98
2023-03-23T03:13:53.870Z,1000.02
2023-03-23T03:14:53.899Z,999.92
2023-03-23T03:16:53.954Z,999.85
2023-03-23T03:17:54.295Z,999.89
2023-03-23T03:18:54.040Z,999.91
2023-03-23T03:19:54.055Z,999.91
2023-03-23T03:20:54.078Z,999.90
2023-03-23T03:21:54.108Z,999.88
2023-03-23T03:22:54.141Z,999.91
2023-03-23T03:23:54.473Z,999.89
2023-03-23T03:24:54.211Z,999.96
2023-03-23T03:25:54.229Z,1000.01
2023-03-23T03:26:54.259Z,1000.00
2023-03-23T03:27:54.287Z,999.93
2023-03-23T03:28:54.318Z,999.95
2023-03-23T03:29:54.356Z,999.94
2023-03-23T03:30:54.738Z,1000.00
2023-03-23T03:31:54.406Z,1000.02
2023-03-23T03:32:54.447Z,999.98
2023-03-23T03:34:54.520Z,1000.03
2023-03-23T03:35:54.557Z,1000.04
2023-03-23T03:36:54.568Z,1000.05
2023-03-23T03:39:54.958Z,1000.10
2023-03-23T03:40:54.677Z,1000.07
2023-03-23T03:41:54.702Z,1000.17
2023-03-23T03:44:54.800Z,1000.17
2023-03-23T03:45:55.130Z,1000.18
2023-03-23T03:46:54.894Z,1000.17
2023-03-23T03:47:54.889Z,1000.16
2023-03-23T03:48:54.911Z,1000.16
2023-03-23T03:49:54.941Z,1000.21
2023-03-23T03:50:54.994Z,1000.14
2023-03-23T03:51:55.009Z,1000.12
2023-03-23T03:52:55.285Z,1000.12
2023-03-23T03:53:55.067Z,1000.09
2023-03-23T03:54:55.094Z,1000.13
2023-03-23T03:55:55.121Z,1000.11
2023-03-23T03:56:55.158Z,1000.05
2023-03-23T03:57:55.185Z,1000.03
2023-03-23T03:58:55.212Z,1000.05
2023-03-23T03:59:55.343Z,1000.04
2023-03-23T04:00:55.274Z,1000.00
2023-03-23T04:01:55.299Z,999.95
2023-03-23T04:02:55.328Z,999.94
2023-03-23T04:03:55.359Z,1000.02
2023-03-23T04:05:58.237Z,1000.05
2023-03-23T04:06:55.785Z,1000.02
2023-03-23T04:07:55.483Z,999.99
2023-03-23T04:09:07.707Z,999.96
2023-03-23T04:09:55.548Z,999.99
2023-03-23T04:10:55.570Z,999.99
2023-03-23T04:11:55.598Z,1000.02
2023-03-23T04:12:55.629Z,1000.02
2023-03-23T04:13:55.960Z,1000.05
2023-03-23T04:14:55.692Z,1000.03
2023-03-23T04:16:06.955Z,1000.02
2023-03-23T04:16:55.747Z,999.99
2023-03-23T04:18:55.816Z,1000.03
2023-03-23T04:19:55.838Z,1000.00
2023-03-23T04:21:56.201Z,1000.07
2023-03-23T04:23:55.977Z,1000.11
2023-03-23T04:24:56.992Z,1000.10
2023-03-23T04:25:56.012Z,1000.09
2023-03-23T04:26:56.047Z,1000.06
2023-03-23T04:27:56.073Z,1000.07
2023-03-23T04:28:56.357Z,1000.11
2023-03-23T04:29:56.133Z,1000.12
2023-03-23T04:30:56.170Z,1000.17
2023-03-23T04:31:56.198Z,1000.16
2023-03-23T04:32:56.372Z,1000.14
2023-03-23T04:33:59.987Z,1000.06
2023-03-23T04:34:56.286Z,1000.12
2023-03-23T04:36:57.337Z,1000.12
2023-03-23T04:37:56.376Z,1000.14
2023-03-23T04:38:56.403Z,1000.12
2023-03-23T04:39:56.462Z,1000.13
2023-03-23T04:41:56.504Z,1000.11
2023-03-23T04:42:56.530Z,1000.10
2023-03-23T04:43:56.966Z,1000.09
2023-03-23T04:44:56.588Z,1000.11
2023-03-23T04:45:56.613Z,1000.12
2023-03-23T04:46:56.651Z,1000.14
2023-03-23T04:47:56.670Z,1000.18
2023-03-23T04:48:56.702Z,1000.23
2023-03-23T04:49:56.736Z,1000.24
2023-03-23T04:51:57.092Z,1000.27
2023-03-23T04:52:56.922Z,1000.28
2023-03-23T04:53:56.847Z,1000.26
2023-03-23T04:55:56.935Z,1000.30
2023-03-23T04:56:56.947Z,1000.31
2023-03-23T04:57:57.271Z,1000.37
2023-03-23T04:58:56.998Z,1000.30
2023-03-23T04:59:57.031Z,1000.26
2023-03-23T05:00:57.073Z,1000.29
2023-03-23T05:02:14.661Z,1000.34
2023-03-23T05:02:57.215Z,1000.37
2023-03-23T05:03:57.180Z,1000.40
2023-03-23T05:04:59.357Z,1000.36
2023-03-23T05:05:57.232Z,1000.39
2023-03-23T05:06:57.233Z,1000.35
2023-03-23T05:07:58.354Z,1000.33
2023-03-23T05:08:57.317Z,1000.35
2023-03-23T05:09:57.328Z,1000.36
2023-03-23T05:10:57.357Z,1000.36
2023-03-23T05:11:57.706Z,1000.36
2023-03-23T05:12:57.409Z,1000.37
2023-03-23T05:13:57.444Z,1000.33
2023-03-23T05:14:57.471Z,1000.36
2023-03-23T05:15:57.508Z,1000.37
2023-03-23T05:16:57.560Z,1000.34
2023-03-23T05:17:57.565Z,1000.39
2023-03-23T05:19:57.919Z,1000.40
2023-03-23T05:20:57.662Z,1000.38
2023-03-23T05:21:57.681Z,1000.39
2023-03-23T05:22:57.743Z,1000.39
2023-03-23T05:23:57.738Z,1000.30
2023-03-23T05:24:57.767Z,1000.39
2023-03-23T05:25:57.796Z,1000.38
2023-03-23T05:26:58.132Z,1000.39
2023-03-23T05:27:57.898Z,1000.40
2023-03-23T05:28:57.893Z,1000.39
2023-03-23T05:29:57.919Z,1000.40
2023-03-23T05:30:57.951Z,1000.41
2023-03-23T05:31:57.977Z,1000.43
2023-03-23T05:32:58.006Z,1000.44
2023-03-23T05:33:58.345Z,1000.42
2023-03-23T05:34:58.167Z,1000.44
2023-03-23T05:36:58.128Z,1000.43
2023-03-23T05:37:58.156Z,1000.43
2023-03-23T05:38:58.193Z,1000.41
2023-03-23T05:39:58.212Z,1000.45
2023-03-23T05:40:58.544Z,1000.44
2023-03-23T05:41:58.276Z,1000.47
2023-03-23T05:42:58.300Z,1000.49
2023-03-23T05:43:58.427Z,1000.51
2023-03-23T05:44:58.370Z,1000.51
2023-03-23T05:45:58.390Z,1000.47
2023-03-23T05:46:58.421Z,1000.43
2023-03-23T05:47:58.757Z,1000.47
2023-03-23T05:48:58.483Z,1000.47
2023-03-23T05:49:58.511Z,1000.48
2023-03-23T05:50:58.543Z,1000.48
2023-03-23T05:51:58.570Z,1000.46
2023-03-23T05:52:58.598Z,1000.46
2023-03-23T05:53:58.726Z,1000.44
2023-03-23T05:55:59.029Z,1000.45
2023-03-23T05:56:58.723Z,1000.49
2023-03-23T05:57:58.752Z,1000.42
2023-03-23T05:58:58.779Z,1000.45
2023-03-23T05:59:58.833Z,1000.47
2023-03-23T06:00:58.837Z,1000.44
2023-03-23T06:01:58.865Z,1000.56
2023-03-23T06:02:59.227Z,1000.56
2023-03-23T06:03:59.966Z,1000.53
2023-03-23T06:04:58.960Z,1000.54
2023-03-23T06:05:58.989Z,1000.58
2023-03-23T06:06:59.020Z,1000.59
2023-03-23T06:07:59.056Z,1000.59
2023-03-23T06:08:59.183Z,1000.62
2023-03-23T06:09:59.357Z,1000.69
2023-03-23T06:10:59.136Z,1000.70
2023-03-23T06:11:59.170Z,1000.72
2023-03-23T06:12:59.193Z,1000.75
2023-03-23T06:13:59.251Z,1000.73
2023-03-23T06:14:59.254Z,1000.74
2023-03-23T06:15:59.309Z,1000.73
2023-03-23T06:16:59.563Z,1000.74
2023-03-23T06:17:59.343Z,1000.75
2023-03-23T06:18:59.380Z,1000.74
2023-03-23T06:19:59.403Z,1000.77
2023-03-23T06:20:59.454Z,1000.77
2023-03-23T06:21:59.475Z,1000.82
2023-03-23T06:22:59.516Z,1000.79
2023-03-23T06:23:59.842Z,1000.88
2023-03-23T06:24:59.556Z,1000.85
2023-03-23T06:26:04.588Z,1000.87
2023-03-23T06:26:59.617Z,1000.85
2023-03-23T06:27:59.647Z,1000.89
2023-03-23T06:28:59.677Z,1000.83
2023-03-23T06:29:59.708Z,1000.80
2023-03-23T06:31:00.038Z,1000.83
2023-03-23T06:31:59.790Z,1000.81
2023-03-23T06:32:59.889Z,1000.78
2023-03-23T06:33:59.827Z,1000.82
2023-03-23T06:34:59.854Z,1000.84
2023-03-23T06:35:59.926Z,1000.84
2023-03-23T06:36:59.963Z,1000.89
2023-03-23T06:38:00.352Z,1000.90
2023-03-23T06:38:59.971Z,1000.90
2023-03-23T06:40:00.004Z,1000.88
2023-03-23T06:41:00.029Z,1000.90
2023-03-23T06:42:00.082Z,1000.94
2023-03-23T06:43:00.121Z,1000.95
2023-03-23T06:44:00.141Z,1000.96
2023-03-23T06:45:00.465Z,1000.93
2023-03-23T06:46:00.248Z,1000.97
2023-03-23T06:47:00.408Z,1000.91
2023-03-23T06:48:00.268Z,1000.91
2023-03-23T06:49:00.279Z,1000.91
2023-03-23T06:51:00.330Z,1000.97
2023-03-23T06:52:00.672Z,1000.96
2023-03-23T06:53:00.387Z,1001.00
2023-03-23T06:54:00.420Z,1001.02
2023-03-23T06:55:00.451Z,1001.00
2023-03-23T06:56:00.483Z,1000.97
2023-03-23T06:57:00.507Z,1001.00
2023-03-23T06:58:00.537Z,1000.99
2023-03-23T06:59:00.819Z,1001.02
2023-03-23T07:00:01.397Z,1001.07
2023-03-23T07:01:00.630Z,1001.07
2023-03-23T07:02:00.660Z,1001.05
2023-03-23T07:03:00.689Z,1001.03
2023-03-23T07:04:00.747Z,1001.02
2023-03-23T07:05:00.747Z,1001.05
2023-03-23T07:06:00.810Z,1001.02
2023-03-23T07:07:00.809Z,1001.02
2023-03-23T07:08:00.836Z,1001.05
2023-03-23T07:09:00.874Z,1001.04
2023-03-23T07:10:00.901Z,1001.06
2023-03-23T07:11:00.925Z,1001.07
2023-03-23T07:12:01.274Z,1001.12
2023-03-23T07:13:00.981Z,1001.10
2023-03-23T07:14:01.015Z,1001.09
2023-03-23T07:16:01.082Z,1000.99
2023-03-23T07:17:01.107Z,1001.05
2023-03-23T07:18:01.442Z,1001.08
2023-03-23T07:19:01.166Z,1001.17
2023-03-23T07:20:01.219Z,1001.11
2023-03-23T07:21:01.223Z,1001.14
2023-03-23T07:22:01.254Z,1001.10
2023-03-23T07:23:01.288Z,1001.13
2023-03-23T07:24:01.618Z,1001.11
2023-03-23T07:25:01.355Z,1001.06
2023-03-23T07:26:01.379Z,1001.06
2023-03-23T07:28:01.438Z,1001.02
2023-03-23T07:29:01.465Z,1001.07
2023-03-23T07:30:01.503Z,1001.06
2023-03-23T07:31:01.827Z,1000.99
2023-03-23T07:32:01.562Z,1001.08
2023-03-23T07:33:01.598Z,1001.08
2023-03-23T07:34:01.626Z,1001.12
2023-03-23T07:35:01.747Z,1001.13
2023-03-23T07:36:01.752Z,1001.12
2023-03-23T07:37:01.720Z,1001.02
2023-03-23T07:39:02.104Z,1001.10
2023-03-23T07:40:01.844Z,1001.04
2023-03-23T07:41:01.825Z,1001.07
2023-03-23T07:42:01.858Z,1001.10
2023-03-23T07:43:01.890Z,1001.10
2023-03-23T07:44:01.953Z,1001.10
2023-03-23T07:45:02.256Z,1001.12
2023-03-23T07:46:01.980Z,1001.14
2023-03-23T07:47:02.000Z,1001.10
2023-03-23T07:49:02.057Z,1001.12
2023-03-23T07:50:02.104Z,1001.06
2023-03-23T07:51:02.131Z,1001.09
2023-03-23T07:52:02.482Z,1001.05
2023-03-23T07:53:02.193Z,1001.08
2023-03-23T07:54:03.621Z,1001.04
2023-03-23T07:55:02.248Z,1001.07
2023-03-23T07:56:02.273Z,1001.06
2023-03-23T07:57:02.301Z,1001.07
2023-03-23T07:58:02.350Z,1001.01
2023-03-23T07:59:02.709Z,1001.04
2023-03-23T08:00:02.424Z,1001.04
2023-03-23T08:01:02.428Z,1001.11
2023-03-23T08:02:02.457Z,1001.13
2023-03-23T08:03:02.482Z,1001.04
2023-03-23T08:04:02.531Z,1001.10
2023-03-23T08:05:02.545Z,1001.08
2023-03-23T08:06:02.873Z,1001.13
2023-03-23T08:07:02.605Z,1001.13
2023-03-23T08:08:02.662Z,1001.09
2023-03-23T08:09:02.660Z,1001.09
2023-03-23T08:10:02.690Z,1001.03
2023-03-23T08:11:02.725Z,1001.10
2023-03-23T08:12:02.762Z,1001.03
2023-03-23T08:13:03.033Z,1001.05
2023-03-23T08:14:02.893Z,1001.10
2023-03-23T08:15:03.147Z,1001.04
2023-03-23T08:16:02.874Z,1001.09
2023-03-23T08:17:02.899Z,1001.14
2023-03-23T08:18:02.941Z,1001.09
2023-03-23T08:19:08.711Z,1001.13
2023-03-23T08:20:03.292Z,1001.12
2023-03-23T08:21:03.020Z,1001.07
2023-03-23T08:22:03.112Z,1001.06
2023-03-23T08:23:03.081Z,1001.14
2023-03-23T08:24:03.135Z,1001.14
2023-03-23T08:25:03.147Z,1001.12
2023-03-23T08:26:03.172Z,1001.10
2023-03-23T08:27:03.505Z,1001.18
2023-03-23T08:28:03.263Z,1001.15
2023-03-23T08:29:03.362Z,1001.15
2023-03-23T08:30:03.303Z,1001.21
2023-03-23T08:31:03.320Z,1001.18
2023-03-23T08:32:03.353Z,1001.21
2023-03-23T08:33:03.381Z,1001.23
2023-03-23T08:34:03.730Z,1001.18
2023-03-23T08:35:03.443Z,1001.15
2023-03-23T08:36:03.509Z,1001.20
2023-03-23T08:37:03.503Z,1001.16
2023-03-23T08:39:03.560Z,1001.21
2023-03-23T08:40:03.661Z,1001.22
2023-03-23T08:41:03.942Z,1001.32
2023-03-23T08:42:03.661Z,1001.31
2023-03-23T08:43:03.686Z,1001.31
2023-03-23T08:44:03.721Z,1001.35
2023-03-23T08:45:03.747Z,1001.32
2023-03-23T08:46:03.802Z,1001.31
2023-03-23T08:47:03.818Z,1001.36
2023-03-23T08:48:04.143Z,1001.38
2023-03-23T08:49:03.873Z,1001.33
2023-03-23T08:50:04.119Z,1001.38
2023-03-23T08:51:03.965Z,1001.39
2023-03-23T08:52:03.974Z,1001.45
2023-03-23T08:53:03.985Z,1001.56
2023-03-23T08:54:04.024Z,1001.53
2023-03-23T08:55:04.354Z,1001.60
2023-03-23T08:56:04.108Z,1001.61
2023-03-23T08:57:04.115Z,1001.60
2023-03-23T08:58:04.149Z,1001.63
2023-03-23T08:59:04.170Z,1001.60
2023-03-23T09:00:04.209Z,1001.59
2023-03-23T09:01:04.261Z,1001.64
2023-03-23T09:02:04.565Z,1001.64
2023-03-23T09:03:04.297Z,1001.60
2023-03-23T09:04:04.326Z,1001.64
2023-03-23T09:05:04.360Z,1001.48
2023-03-23T09:06:04.386Z,1001.65
2023-03-23T09:07:04.438Z,1001.60
2023-03-23T09:08:04.765Z,1001.61
2023-03-23T09:09:04.480Z,1001.54
2023-03-23T09:10:04.512Z,1001.69
2023-03-23T09:12:04.627Z,1001.56
2023-03-23T09:13:04.599Z,1001.54
2023-03-23T09:14:05.196Z,1001.60
2023-03-23T09:15:04.665Z,1001.62
2023-03-23T09:16:04.800Z,1001.63
2023-03-23T09:17:04.728Z,1001.54
2023-03-23T09:18:04.759Z,1001.58
2023-03-23T09:21:04.846Z,1001.54
2023-03-23T09:22:04.887Z,1001.57
2023-03-23T09:23:04.906Z,1001.42
2023-03-23T09:24:04.937Z,1001.53
2023-03-23T09:25:05.835Z,1001.53
2023-03-23T09:26:05.002Z,1001.46
2023-03-23T09:27:05.053Z,1001.48
2023-03-23T09:28:05.495Z,1001.53
2023-03-23T09:29:05.095Z,1001.58
2023-03-23T09:30:05.130Z,1001.56
2023-03-23T09:31:05.156Z,1001.52
2023-03-23T09:33:05.569Z,1001.63
2023-03-23T09:34:05.249Z,1001.62
2023-03-23T09:35:05.591Z,1001.59
2023-03-23T09:36:05.366Z,1001.68
2023-03-23T09:38:05.371Z,1001.76
2023-03-23T09:39:05.408Z,1001.79
2023-03-23T09:40:06.943Z,1001.85
2023-03-23T09:41:05.715Z,1001.75
2023-03-23T09:42:05.498Z,1001.73
2023-03-23T09:43:05.567Z,1001.75
2023-03-23T09:44:05.582Z,1001.78
2023-03-23T09:45:05.587Z,1001.78
2023-03-23T09:46:05.617Z,1001.83
2023-03-23T09:47:05.651Z,1001.78
2023-03-23T09:48:07.616Z,1001.74
2023-03-23T09:49:05.744Z,1001.71
2023-03-23T09:50:05.848Z,1001.74
2023-03-23T09:51:05.779Z,1001.71
2023-03-23T09:52:05.798Z,1001.68
2023-03-23T09:53:05.842Z,1001.76
2023-03-23T09:54:05.870Z,1001.82
2023-03-23T09:55:06.199Z,1001.78
2023-03-23T09:56:05.939Z,1001.74
2023-03-23T09:57:05.957Z,1001.56
2023-03-23T09:58:06.088Z,1001.53
2023-03-23T09:59:06.023Z,1001.64
2023-03-23T10:00:06.065Z,1001.61
2023-03-23T10:01:06.120Z,1001.60
2023-03-23T10:02:06.359Z,1001.59
2023-03-23T10:03:06.146Z,1001.57
2023-03-23T10:04:06.175Z,1001.66
2023-03-23T10:05:06.208Z,1001.61
2023-03-23T10:06:06.246Z,1001.60
2023-03-23T10:07:06.282Z,1001.67
2023-03-23T10:08:06.296Z,1001.67
2023-03-23T10:09:06.639Z,1001.67
2023-03-23T10:10:06.381Z,1001.72
2023-03-23T10:11:06.395Z,1001.67
2023-03-23T10:12:06.420Z,1001.67
2023-03-23T10:13:06.448Z,1001.60
2023-03-23T10:15:06.512Z,1001.65
2023-03-23T10:17:06.634Z,1001.62
2023-03-23T10:20:06.712Z,1001.61
2023-03-23T10:21:06.697Z,1001.72
2023-03-23T10:23:06.757Z,1001.76
2023-03-23T10:24:06.841Z,1001.80
2023-03-23T10:25:06.819Z,1001.78
2023-03-23T10:26:06.868Z,1001.65
2023-03-23T10:27:06.882Z,1001.68
2023-03-23T10:28:06.931Z,1001.78
2023-03-23T10:29:07.199Z,1001.67
2023-03-23T10:30:06.978Z,1001.72
2023-03-23T10:32:07.037Z,1001.70
2023-03-23T10:33:07.097Z,1001.71
2023-03-23T10:34:07.097Z,1001.70
2023-03-23T10:35:07.382Z,1001.75
2023-03-23T10:36:07.230Z,1001.75
2023-03-23T10:37:07.194Z,1001.71
2023-03-23T10:38:07.229Z,1001.72
2023-03-23T10:39:07.254Z,1001.67
2023-03-23T10:40:07.282Z,1001.67
2023-03-23T10:42:07.649Z,1001.78
2023-03-23T10:43:07.407Z,1001.74
2023-03-23T10:45:07.444Z,1001.71
2023-03-23T10:46:07.481Z,1001.79
2023-03-23T10:47:07.503Z,1001.78
2023-03-23T10:48:07.833Z,1001.81
2023-03-23T10:49:07.587Z,1001.87
2023-03-23T10:50:07.592Z,1001.89
2023-03-23T10:52:07.663Z,1001.81
2023-03-23T10:53:07.682Z,1001.82
2023-03-23T10:54:09.623Z,1001.84
2023-03-23T10:55:07.750Z,1001.78
2023-03-23T10:56:07.778Z,1001.86
2023-03-23T10:57:07.809Z,1001.80
2023-03-23T10:58:07.837Z,1001.80
2023-03-23T10:59:07.868Z,1001.90
2023-03-23T11:00:07.908Z,1001.84
2023-03-23T11:01:08.349Z,1001.88
2023-03-23T11:02:08.592Z,1001.87
2023-03-23T11:03:07.998Z,1001.88
2023-03-23T11:04:08.022Z,1001.88
2023-03-23T11:05:09.570Z,1001.86
2023-03-23T11:07:08.122Z,1001.91
2023-03-23T11:08:08.449Z,1001.91
2023-03-23T11:09:08.177Z,1001.89
2023-03-23T11:10:08.211Z,1001.81
2023-03-23T11:11:08.239Z,1001.90
2023-03-23T11:12:08.634Z,1001.80
2023-03-23T11:13:08.301Z,1001.79
2023-03-23T11:14:08.341Z,1001.75
2023-03-23T11:15:08.663Z,1001.77
2023-03-23T11:16:08.394Z,1001.80
2023-03-23T11:17:15.858Z,1001.85
2023-03-23T11:18:08.500Z,1001.87
2023-03-23T11:20:08.514Z,1001.80
2023-03-23T11:21:08.570Z,1001.77
2023-03-23T11:22:08.829Z,1001.84
2023-03-23T11:23:08.609Z,1001.81
2023-03-23T11:24:10.183Z,1001.76
2023-03-23T11:25:08.669Z,1001.73
2023-03-23T11:26:08.710Z,1001.73
2023-03-23T11:27:08.732Z,1001.66
2023-03-23T11:29:09.101Z,1001.72
2023-03-23T11:30:08.847Z,1001.65
2023-03-23T11:31:08.865Z,1001.69
2023-03-23T11:32:08.886Z,1001.70
2023-03-23T11:33:08.912Z,1001.61
2023-03-23T11:34:08.947Z,1001.64
2023-03-23T11:35:16.237Z,1001.62
2023-03-23T11:36:09.322Z,1001.70
2023-03-23T11:37:09.055Z,1001.70
2023-03-23T11:38:09.072Z,1001.69
2023-03-23T11:39:09.102Z,1001.76
2023-03-23T11:40:09.130Z,1001.79
2023-03-23T11:41:09.365Z,1001.76
2023-03-23T11:42:09.740Z,1001.76
2023-03-23T11:43:09.472Z,1001.78
2023-03-23T11:44:09.253Z,1001.85
2023-03-23T11:45:09.326Z,1001.88
2023-03-23T11:46:09.313Z,1001.94
2023-03-23T11:47:09.351Z,1001.96
2023-03-23T11:48:09.396Z,1001.94
2023-03-23T11:49:19.216Z,1001.93
2023-03-23T11:50:09.735Z,1001.81
2023-03-23T11:51:09.475Z,1001.79
2023-03-23T11:52:09.522Z,1001.84
2023-03-23T11:53:09.549Z,1001.87
2023-03-23T11:54:09.597Z,1001.93
2023-03-23T11:55:09.607Z,1001.96
2023-03-23T11:56:09.657Z,1002.02
2023-03-23T11:57:09.955Z,1002.12
2023-03-23T11:58:09.688Z,1002.04
2023-03-23T11:59:09.715Z,1002.08
2023-03-23T12:00:09.743Z,1002.16
2023-03-23T12:01:09.970Z,1002.10
2023-03-23T12:03:09.830Z,1002.09
2023-03-23T12:04:10.187Z,1002.07
2023-03-23T12:05:09.889Z,1002.05
2023-03-23T12:06:09.930Z,1002.02
2023-03-23T12:07:09.955Z,1002.05
2023-03-23T12:09:10.041Z,1001.90
2023-03-23T12:10:10.043Z,1001.95
2023-03-23T12:11:10.334Z,1002.06
2023-03-23T12:12:10.107Z,1001.99
2023-03-23T12:13:11.877Z,1001.99
2023-03-23T12:14:10.178Z,1001.98
2023-03-23T12:15:10.198Z,1001.89
2023-03-23T12:16:10.232Z,1001.98
2023-03-23T12:17:10.261Z,1001.92
2023-03-23T12:18:10.602Z,1001.94
2023-03-23T12:19:10.337Z,1001.98
2023-03-23T12:20:10.356Z,1001.86
2023-03-23T12:21:10.415Z,1001.94
2023-03-23T12:22:10.420Z,1001.89
2023-03-23T12:24:10.784Z,1001.76
2023-03-23T12:25:10.539Z,1001.62
2023-03-23T12:26:10.542Z,1001.71
2023-03-23T12:28:10.604Z,1001.91
2023-03-23T12:29:10.641Z,1001.79
2023-03-23T12:30:10.964Z,1001.76
2023-03-23T12:31:10.695Z,1001.63
2023-03-23T12:32:10.728Z,1001.60
2023-03-23T12:33:10.756Z,1001.69
2023-03-23T12:34:10.786Z,1001.76
2023-03-23T12:35:10.816Z,1001.76
2023-03-23T12:36:11.161Z,1001.81
2023-03-23T12:37:10.880Z,1001.86
2023-03-23T12:38:10.911Z,1001.81
2023-03-23T12:39:10.941Z,1001.75
2023-03-23T12:40:10.980Z,1001.58
2023-03-23T12:41:11.039Z,1001.58
2023-03-23T12:42:11.036Z,1001.59
2023-03-23T12:43:11.366Z,1001.55
2023-03-23T12:44:11.097Z,1001.59
2023-03-23T12:45:11.133Z,1001.52
2023-03-23T12:46:11.165Z,1001.44
2023-03-23T12:47:11.188Z,1001.53
2023-03-23T12:48:11.215Z,1001.56
2023-03-23T12:49:11.247Z,1001.54
2023-03-23T12:50:11.578Z,1001.65
2023-03-23T12:51:11.317Z,1001.64
2023-03-23T12:52:11.340Z,1001.49
2023-03-23T12:53:11.386Z,1001.49
2023-03-23T12:54:11.401Z,1001.58
2023-03-23T12:55:11.433Z,1001.56
2023-03-23T12:56:11.465Z,1001.61
2023-03-23T12:57:11.818Z,1001.62
2023-03-23T12:58:11.523Z,1001.60
2023-03-23T12:59:11.556Z,1001.56
2023-03-23T13:00:11.592Z,1001.70
2023-03-23T13:01:11.637Z,1001.88
2023-03-23T13:02:11.644Z,1001.88
2023-03-23T13:03:11.684Z,1001.83